createdAt,value
2018-07-15T00:02:16.128Z,94.20
2018-07-15T00:04:46.541Z,94.30
2018-07-15T00:07:15.518Z,94.30
2018-07-15T00:09:44.470Z,94.40
2018-07-15T00:12:13.446Z,94.40
2018-07-15T00:14:42.424Z,94.50
2018-07-15T00:17:11.383Z,95.10
2018-07-15T00:19:40.325Z,94.90
2018-07-15T00:22:09.303Z,94.70
2018-07-15T00:24:38.253Z,94.80
2018-07-15T00:27:07.759Z,95.20
2018-07-15T00:29:36.719Z,94.90
2018-07-15T00:32:05.820Z,94.90
2018-07-15T00:34:34.782Z,95.00
2018-07-15T00:37:03.997Z,95.20
2018-07-15T00:39:32.978Z,95.40
2018-07-15T00:42:01.941Z,95.30
2018-07-15T00:44:31.337Z,95.20
2018-07-15T00:47:00.332Z,95.50
2018-07-15T00:49:29.298Z,95.60
2018-07-15T00:51:59.673Z,95.70
2018-07-15T00:54:28.643Z,96.00
2018-07-15T00:56:57.622Z,95.40
2018-07-15T00:59:26.577Z,94.70
2018-07-15T01:01:55.616Z,95.20
2018-07-15T01:04:24.608Z,95.50
2018-07-15T01:06:53.595Z,95.40
2018-07-15T01:09:22.609Z,95.30
2018-07-15T01:11:52.287Z,95.40
2018-07-15T01:14:21.729Z,95.20
2018-07-15T01:16:50.734Z,95.00
2018-07-15T01:19:19.686Z,94.80
2018-07-15T01:21:49.514Z,94.80
2018-07-15T01:24:18.476Z,94.60
2018-07-15T01:26:47.438Z,94.50
2018-07-15T01:29:16.428Z,95.00
2018-07-15T01:31:45.392Z,95.30
2018-07-15T01:34:14.375Z,95.60
2018-07-15T01:36:43.443Z,95.50
2018-07-15T01:39:12.405Z,95.80
2018-07-15T01:41:41.418Z,96.00
2018-07-15T01:44:10.368Z,96.30
2018-07-15T01:46:39.346Z,96.30
2018-07-15T01:49:08.394Z,95.80
2018-07-15T01:51:37.369Z,94.90
2018-07-15T01:54:06.404Z,94.50
2018-07-15T01:56:35.356Z,93.80
2018-07-15T01:59:04.325Z,95.00
2018-07-15T02:01:33.315Z,94.90
2018-07-15T02:04:02.278Z,95.10
2018-07-15T02:06:33.837Z,95.10
2018-07-15T02:09:02.851Z,95.30
2018-07-15T02:14:01.891Z,95.20
2018-07-15T02:16:32.019Z,95.10
2018-07-15T02:19:04.628Z,95.30
2018-07-15T02:21:33.670Z,95.30
2018-07-15T02:24:02.657Z,95.30
2018-07-15T02:26:31.605Z,95.30
2018-07-15T02:29:00.570Z,94.90
2018-07-15T02:31:29.518Z,95.10
2018-07-15T02:33:58.493Z,95.40
2018-07-15T02:36:27.475Z,95.40
2018-07-15T02:38:56.444Z,95.60
2018-07-15T02:41:25.407Z,95.30
2018-07-15T02:43:54.371Z,95.00
2018-07-15T02:46:23.318Z,95.10
2018-07-15T02:48:52.277Z,95.30
2018-07-15T02:51:21.229Z,95.40
2018-07-15T02:53:55.088Z,95.50
2018-07-15T02:56:25.077Z,95.40
2018-07-15T02:58:54.057Z,95.60
2018-07-15T03:01:23.019Z,95.80
2018-07-15T03:06:20.690Z,96.40
2018-07-15T03:11:18.267Z,96.60
2018-07-15T03:13:47.270Z,96.20
2018-07-15T03:16:17.369Z,96.40
2018-07-15T03:18:47.017Z,96.40
2018-07-15T03:21:15.991Z,96.30
2018-07-15T03:23:44.954Z,95.80
2018-07-15T03:26:13.903Z,95.70
2018-07-15T03:28:42.887Z,95.40
2018-07-15T03:31:11.865Z,95.10
2018-07-15T03:33:41.412Z,95.40
2018-07-15T03:36:10.390Z,95.40
2018-07-15T03:38:39.397Z,95.80
2018-07-15T03:41:08.386Z,95.80
2018-07-15T03:43:40.036Z,95.70
2018-07-15T03:46:09.816Z,95.40
2018-07-15T03:51:07.431Z,95.90
2018-07-15T03:53:36.442Z,95.50
2018-07-15T03:56:06.072Z,95.50
2018-07-15T03:58:35.071Z,96.20
2018-07-15T04:01:07.796Z,96.40
2018-07-15T04:03:36.788Z,96.50
2018-07-15T04:06:05.767Z,96.40
2018-07-15T04:08:34.787Z,96.50
2018-07-15T04:11:03.909Z,96.40
2018-07-15T04:13:32.918Z,97.00
2018-07-15T04:16:01.915Z,96.90
2018-07-15T04:18:30.901Z,96.80
2018-07-15T04:20:59.872Z,96.30
2018-07-15T04:23:28.872Z,95.90
2018-07-15T04:25:57.827Z,95.90
2018-07-15T04:28:26.896Z,96.20
2018-07-15T04:30:55.976Z,96.20
2018-07-15T04:33:24.985Z,96.00
2018-07-15T04:35:53.948Z,95.80
2018-07-15T04:38:22.959Z,95.60
2018-07-15T04:40:51.933Z,95.80
2018-07-15T04:43:20.959Z,96.10
2018-07-15T04:45:49.942Z,96.20
2018-07-15T04:48:18.932Z,96.00
2018-07-15T04:50:48.309Z,96.10
2018-07-15T04:53:19.739Z,96.30
2018-07-15T04:55:48.795Z,96.40
2018-07-15T04:58:18.285Z,96.20
2018-07-15T05:00:47.246Z,96.20
2018-07-15T05:03:16.216Z,96.00
2018-07-15T05:05:45.838Z,96.00
2018-07-15T05:08:14.828Z,96.10
2018-07-15T05:10:43.848Z,95.80
2018-07-15T05:13:12.823Z,95.90
2018-07-15T05:15:41.855Z,96.10
2018-07-15T05:18:11.864Z,95.90
2018-07-15T05:20:40.896Z,96.20
2018-07-15T05:23:09.907Z,95.70
2018-07-15T05:25:38.912Z,96.20
2018-07-15T05:28:08.699Z,96.10
2018-07-15T05:30:37.691Z,96.30
2018-07-15T05:33:07.208Z,96.20
2018-07-15T05:35:36.698Z,96.20
2018-07-15T05:38:06.856Z,95.70
2018-07-15T05:40:35.879Z,95.60
2018-07-15T05:43:04.885Z,95.80
2018-07-15T05:45:33.948Z,95.60
2018-07-15T05:48:03.322Z,95.30
2018-07-15T05:50:33.382Z,95.10
2018-07-15T05:53:02.401Z,94.90
2018-07-15T05:55:31.475Z,94.50
2018-07-15T05:58:00.530Z,94.20
2018-07-15T06:00:29.455Z,93.80
2018-07-15T06:03:00.623Z,93.50
2018-07-15T06:05:30.299Z,93.70
2018-07-15T06:07:59.431Z,93.40
2018-07-15T06:10:28.475Z,93.30
2018-07-15T06:12:57.907Z,93.10
2018-07-15T06:15:26.941Z,93.10
2018-07-15T06:17:55.890Z,92.90
2018-07-15T06:20:25.443Z,92.60
2018-07-15T06:22:54.456Z,92.60
2018-07-15T06:25:23.491Z,92.50
2018-07-15T06:27:54.237Z,92.40
2018-07-15T06:30:23.222Z,91.90
2018-07-15T06:32:52.187Z,91.80
2018-07-15T06:35:21.939Z,91.30
2018-07-15T06:37:50.920Z,91.40
2018-07-15T06:40:19.921Z,91.50
2018-07-15T06:42:48.964Z,91.40
2018-07-15T06:45:17.956Z,91.30
2018-07-15T06:47:46.930Z,91.20
2018-07-15T06:50:16.553Z,90.90
2018-07-15T06:52:45.587Z,90.90
2018-07-15T06:55:14.606Z,91.00
2018-07-15T06:57:43.609Z,90.80
2018-07-15T07:00:12.648Z,90.30
2018-07-15T07:02:41.698Z,90.10
2018-07-15T07:05:12.675Z,89.70
2018-07-15T07:07:43.302Z,89.50
2018-07-15T07:10:12.950Z,89.00
2018-07-15T07:12:42.970Z,88.30
2018-07-15T07:15:12.052Z,87.10
2018-07-15T07:17:41.456Z,87.10
2018-07-15T07:20:10.447Z,86.80
2018-07-15T07:22:39.488Z,86.90
2018-07-15T07:25:08.507Z,86.40
2018-07-15T07:27:39.091Z,85.20
2018-07-15T07:30:08.123Z,83.80
2018-07-15T07:32:37.498Z,83.90
2018-07-15T07:35:06.594Z,84.10
2018-07-15T07:37:35.639Z,83.80
2018-07-15T07:40:04.856Z,83.60
2018-07-15T07:42:33.859Z,83.90
2018-07-15T07:45:03.328Z,83.30
2018-07-15T07:47:34.108Z,81.50
2018-07-15T07:50:12.638Z,78.70
2018-07-15T07:52:51.070Z,76.00
2018-07-15T07:55:20.998Z,73.30
2018-07-15T07:57:55.461Z,67.50
2018-07-15T08:02:54.911Z,53.30
2018-07-15T08:10:21.549Z,37.70
2018-07-15T08:12:50.742Z,36.90
2018-07-15T08:15:19.919Z,35.20
2018-07-15T08:17:49.625Z,31.80
2018-07-15T08:20:27.145Z,30.20
2018-07-15T08:22:58.413Z,28.70
2018-07-15T08:25:37.177Z,28.20
2018-07-15T08:28:07.884Z,29.20
2018-07-15T08:30:48.440Z,29.50
2018-07-15T08:33:19.343Z,28.50
2018-07-15T08:53:34.928Z,61.40
2018-07-15T08:56:04.806Z,40.70
2018-07-15T08:58:34.056Z,41.40
2018-07-15T09:01:03.264Z,42.80
2018-07-15T09:03:33.161Z,41.80
2018-07-15T09:06:02.321Z,42.30
2018-07-15T09:08:31.444Z,42.20
2018-07-15T09:11:07.735Z,43.10
2018-07-15T09:13:41.209Z,43.00
2018-07-15T09:16:10.675Z,42.80
2018-07-15T09:18:40.680Z,45.50
2018-07-15T09:21:09.802Z,44.50
2018-07-15T09:26:09.161Z,44.50
2018-07-15T09:28:38.345Z,43.20
2018-07-15T09:31:07.485Z,43.50
2018-07-15T09:33:37.124Z,43.90
2018-07-15T09:36:06.257Z,44.40
2018-07-15T09:38:35.441Z,44.00
2018-07-15T10:50:38.344Z,35.70
2018-07-15T10:53:07.376Z,36.40
2018-07-15T10:55:36.878Z,38.30
2018-07-15T10:58:05.941Z,39.50
2018-07-15T11:00:35.816Z,40.20
2018-07-15T11:03:06.062Z,41.20
2018-07-15T11:05:35.222Z,43.30
2018-07-15T11:08:04.286Z,44.60
2018-07-15T11:10:34.684Z,44.10
2018-07-15T11:13:05.217Z,44.60
2018-07-15T11:15:34.300Z,44.70
2018-07-15T11:18:05.699Z,44.30
2018-07-15T11:20:36.426Z,43.90
2018-07-15T11:23:05.926Z,44.30
2018-07-15T11:25:35.377Z,44.70
2018-07-15T11:28:04.359Z,45.00
2018-07-15T11:30:33.375Z,45.60
2018-07-15T11:33:02.351Z,45.00
2018-07-15T11:35:31.363Z,45.30
2018-07-15T11:38:01.929Z,46.70
2018-07-15T11:40:30.934Z,45.40
2018-07-15T11:42:59.960Z,45.00
2018-07-15T11:45:29.842Z,45.40
2018-07-15T11:47:58.855Z,46.60
2018-07-15T11:50:27.856Z,46.90
2018-07-15T11:52:57.113Z,46.60
2018-07-15T11:55:26.107Z,46.30
2018-07-15T11:57:55.111Z,45.70
2018-07-15T12:00:24.623Z,46.00
2018-07-15T12:02:53.734Z,46.00
2018-07-15T12:05:23.366Z,45.40
2018-07-15T12:07:52.359Z,45.60
2018-07-15T12:10:21.362Z,45.20
2018-07-15T12:12:50.362Z,45.80
2018-07-15T12:15:19.917Z,45.60
2018-07-15T12:17:48.915Z,45.00
2018-07-15T12:20:17.921Z,44.90
2018-07-15T12:22:46.879Z,44.50
2018-07-15T12:25:15.882Z,44.60
2018-07-15T12:27:44.895Z,44.70
2018-07-15T12:30:13.920Z,45.20
2018-07-15T12:32:48.015Z,46.40
2018-07-15T12:35:19.590Z,47.90
2018-07-15T12:37:48.575Z,47.90
2018-07-15T12:40:17.723Z,47.20
2018-07-15T12:42:46.732Z,47.10
2018-07-15T12:45:16.707Z,47.70
2018-07-15T12:47:49.812Z,47.80
2018-07-15T12:50:23.043Z,47.60
2018-07-15T12:52:54.998Z,47.50
2018-07-15T12:55:24.033Z,47.20
2018-07-15T12:57:53.135Z,47.70
2018-07-15T13:00:22.899Z,47.80
2018-07-15T13:02:51.905Z,47.50
2018-07-15T13:05:20.909Z,47.80
2018-07-15T13:07:49.892Z,46.60
2018-07-15T13:10:18.892Z,46.70
2018-07-15T13:12:47.948Z,45.60
2018-07-15T13:15:17.012Z,44.70
2018-07-15T13:17:46.001Z,45.00
2018-07-15T13:20:15.000Z,45.20
2018-07-15T13:22:44.016Z,44.30
2018-07-15T13:25:14.266Z,45.30
2018-07-15T13:27:58.007Z,46.10
2018-07-15T13:30:27.009Z,47.50
2018-07-15T13:35:24.772Z,45.80
2018-07-15T13:37:54.399Z,47.00
2018-07-15T13:40:23.467Z,47.80
2018-07-15T13:42:52.535Z,46.60
2018-07-15T13:45:21.531Z,46.10
2018-07-15T13:47:50.509Z,46.70
2018-07-15T13:50:20.722Z,46.80
2018-07-15T13:52:49.719Z,46.00
2018-07-15T13:55:18.697Z,45.80
2018-07-15T13:57:47.666Z,45.20
2018-07-15T14:00:16.723Z,44.00
2018-07-15T14:02:46.433Z,44.10
2018-07-15T14:05:15.461Z,43.70
2018-07-15T14:07:44.491Z,44.70
2018-07-15T14:10:13.476Z,44.50
2018-07-15T14:12:42.474Z,44.70
2018-07-15T14:15:11.554Z,45.80
2018-07-15T14:17:40.623Z,45.60
2018-07-15T14:20:10.027Z,45.00
2018-07-15T14:22:39.051Z,45.20
2018-07-15T14:25:09.079Z,45.00
2018-07-15T14:27:38.845Z,44.30
2018-07-15T14:30:08.163Z,45.30
2018-07-15T14:32:37.697Z,45.20
2018-07-15T14:35:07.102Z,45.10
2018-07-15T14:37:36.087Z,44.90
2018-07-15T14:40:05.275Z,44.40
2018-07-15T14:42:34.297Z,44.70
2018-07-15T14:45:04.161Z,44.40
2018-07-15T14:47:33.638Z,44.10
2018-07-15T14:50:03.983Z,44.10
2018-07-15T14:52:33.001Z,44.20
2018-07-15T14:57:30.656Z,43.10
2018-07-15T14:59:59.647Z,42.70
2018-07-15T15:02:28.658Z,44.30
2018-07-15T15:04:58.562Z,44.70
2018-07-15T15:07:27.571Z,45.00
2018-07-15T15:09:57.826Z,44.50
2018-07-15T15:12:26.863Z,45.10
2018-07-15T15:14:55.885Z,44.40
2018-07-15T15:17:26.749Z,43.20
2018-07-15T15:19:55.742Z,43.90
2018-07-15T15:22:24.823Z,43.50
2018-07-15T15:24:53.888Z,43.70
2018-07-15T15:27:25.484Z,43.30
2018-07-15T15:29:54.451Z,42.90
2018-07-15T15:32:24.071Z,42.80
2018-07-15T15:34:53.064Z,41.90
2018-07-15T15:37:23.355Z,40.50
2018-07-15T15:39:52.408Z,40.70
2018-07-15T15:42:22.658Z,40.30
2018-07-15T15:44:52.069Z,41.00
2018-07-15T15:47:21.070Z,41.40
2018-07-15T15:49:50.054Z,42.70
2018-07-15T15:52:19.121Z,43.20
2018-07-15T15:54:48.678Z,42.80
2018-07-15T15:57:17.689Z,42.10
2018-07-15T15:59:46.642Z,41.90
2018-07-15T16:02:15.649Z,41.90
2018-07-15T16:04:45.046Z,42.20
2018-07-15T16:07:14.066Z,41.90
2018-07-15T16:09:43.019Z,41.80
2018-07-15T16:12:12.654Z,42.50
2018-07-15T16:14:42.711Z,43.00
2018-07-15T16:17:11.747Z,42.80
2018-07-15T16:19:41.206Z,43.00
2018-07-15T16:24:38.888Z,43.60
2018-07-15T16:27:07.898Z,43.00
2018-07-15T16:29:36.907Z,43.30
2018-07-15T16:32:05.960Z,42.90
2018-07-15T16:34:34.954Z,43.10
2018-07-15T16:37:03.952Z,42.80
2018-07-15T16:39:32.979Z,43.50
2018-07-15T16:42:01.951Z,44.00
2018-07-15T16:44:31.012Z,43.80
2018-07-15T16:47:00.028Z,44.30
2018-07-15T16:49:29.096Z,44.30
2018-07-15T16:51:58.196Z,44.00
2018-07-15T16:54:27.255Z,44.10
2018-07-15T16:56:56.272Z,43.10
2018-07-15T16:59:27.775Z,42.20
2018-07-15T17:01:56.880Z,41.90
2018-07-15T17:04:25.850Z,42.60
2018-07-15T17:06:55.553Z,43.20
2018-07-15T17:09:25.032Z,42.70
2018-07-15T17:11:54.039Z,43.50
2018-07-15T17:14:23.020Z,42.80
2018-07-15T17:16:52.148Z,42.90
2018-07-15T17:19:21.191Z,42.90
2018-07-15T17:21:50.260Z,43.50
2018-07-15T17:24:20.418Z,42.50
2018-07-15T17:26:49.512Z,42.70
2018-07-15T17:29:18.545Z,42.70
2018-07-15T17:31:47.519Z,43.00
2018-07-15T17:34:16.632Z,42.60
2018-07-15T17:36:45.634Z,43.00
2018-07-15T17:39:15.547Z,42.80
2018-07-15T17:41:45.516Z,42.30
2018-07-15T17:44:14.515Z,41.90
2018-07-15T17:46:43.480Z,41.40
2018-07-15T17:49:12.493Z,41.50
2018-07-15T17:51:41.511Z,41.60
2018-07-15T17:54:10.494Z,41.60
2018-07-15T17:56:39.530Z,41.80
2018-07-15T17:59:08.728Z,42.70
2018-07-15T18:01:38.624Z,43.70
2018-07-15T18:04:07.651Z,43.70
2018-07-15T18:06:37.469Z,44.80
2018-07-15T18:09:06.984Z,46.40
2018-07-15T18:11:35.967Z,49.10
2018-07-15T18:14:05.040Z,57.00
2018-07-15T18:16:34.045Z,58.10
2018-07-15T18:19:03.028Z,61.20
2018-07-15T18:21:32.034Z,56.60
2018-07-15T18:24:01.080Z,56.90
2018-07-15T18:26:30.059Z,56.60
2018-07-15T18:28:59.987Z,48.50
2018-07-15T18:31:28.970Z,49.00
2018-07-15T18:33:58.507Z,49.20
2018-07-15T18:36:27.516Z,49.00
2018-07-15T18:38:56.536Z,49.50
2018-07-15T18:41:25.522Z,48.90
2018-07-15T18:43:54.558Z,49.40
2018-07-15T18:46:23.611Z,49.60
2018-07-15T18:48:53.071Z,49.90
2018-07-15T18:51:22.066Z,49.80
2018-07-15T18:53:51.180Z,49.60
2018-07-15T18:56:21.303Z,49.90
2018-07-15T18:58:51.055Z,50.80
2018-07-15T19:01:20.084Z,53.30
2018-07-15T19:03:49.083Z,87.10
2018-07-15T19:06:18.072Z,55.40
2018-07-15T19:08:47.203Z,92.40
2018-07-15T19:11:16.183Z,56.20
2018-07-15T19:13:45.236Z,56.80
2018-07-15T19:16:14.246Z,57.20
2018-07-15T19:18:43.347Z,57.60
2018-07-15T19:21:12.354Z,58.10
2018-07-15T19:23:41.746Z,57.30
2018-07-15T19:26:10.780Z,58.20
2018-07-15T19:28:39.796Z,57.70
2018-07-15T19:31:08.789Z,58.40
2018-07-15T19:33:44.485Z,58.90
2018-07-15T19:36:13.431Z,59.00
2018-07-15T19:38:42.420Z,59.50
2018-07-15T19:41:11.441Z,60.60
2018-07-15T19:43:40.553Z,60.70
2018-07-15T19:46:09.536Z,61.30
2018-07-15T19:48:38.540Z,61.90
2018-07-15T19:51:07.531Z,61.90
2018-07-15T19:53:36.579Z,61.90
2018-07-15T19:56:05.588Z,62.00
2018-07-15T19:58:34.695Z,62.50
2018-07-15T20:01:04.326Z,62.00
2018-07-15T20:03:33.328Z,62.80
2018-07-15T20:06:02.323Z,63.20
2018-07-15T20:08:31.315Z,62.60
2018-07-15T20:11:00.350Z,62.80
2018-07-15T20:13:29.339Z,63.90
2018-07-15T20:15:58.439Z,64.20
2018-07-15T20:18:27.433Z,64.40
2018-07-15T20:20:56.479Z,64.70
2018-07-15T20:23:25.492Z,65.40
2018-07-15T20:28:25.867Z,66.60
2018-07-15T20:30:54.961Z,67.20
2018-07-15T20:33:23.983Z,67.50
2018-07-15T20:35:53.048Z,68.00
2018-07-15T20:38:22.023Z,69.90
2018-07-15T20:40:52.419Z,69.60
2018-07-15T20:43:21.411Z,69.40
2018-07-15T20:45:50.435Z,71.30
2018-07-15T20:48:19.419Z,71.70
2018-07-15T20:50:48.518Z,70.80
2018-07-15T20:53:18.306Z,71.20
2018-07-15T20:55:56.587Z,71.50
2018-07-15T20:58:26.318Z,72.30
2018-07-15T21:01:06.035Z,72.20
2018-07-15T21:03:35.044Z,72.30
2018-07-15T21:06:04.056Z,72.50
2018-07-15T21:08:33.095Z,72.80
2018-07-15T21:11:02.275Z,73.40
2018-07-15T21:13:31.272Z,73.10
2018-07-15T21:16:00.339Z,73.10
2018-07-15T21:18:29.339Z,73.80
2018-07-15T21:20:58.336Z,76.30
2018-07-15T21:23:27.333Z,77.10
2018-07-15T21:25:56.512Z,77.10
2018-07-15T21:28:28.249Z,77.30
2018-07-15T21:30:57.260Z,78.20
2018-07-15T21:33:26.252Z,78.60
2018-07-15T21:35:55.280Z,79.50
2018-07-15T21:38:24.279Z,79.60
2018-07-15T21:40:53.362Z,79.30
2018-07-15T21:43:22.350Z,79.00
2018-07-15T21:45:51.355Z,79.70
2018-07-15T21:48:20.439Z,79.70
2018-07-15T21:50:50.298Z,81.50
2018-07-15T21:53:19.690Z,83.10
2018-07-15T21:55:48.692Z,81.60
2018-07-15T21:58:17.724Z,82.80
2018-07-15T22:00:46.743Z,82.50
2018-07-15T22:03:16.484Z,81.90
2018-07-15T22:05:48.071Z,82.50
2018-07-15T22:08:28.491Z,83.20
2018-07-15T22:10:57.504Z,84.50
2018-07-15T22:13:26.503Z,84.40
2018-07-15T22:18:24.127Z,85.50
2018-07-15T22:20:55.599Z,85.10
2018-07-15T22:23:24.599Z,86.40
2018-07-15T22:25:53.608Z,86.10
2018-07-15T22:28:22.646Z,86.00
2018-07-15T22:30:51.651Z,86.30
2018-07-15T22:33:20.647Z,86.30
2018-07-15T22:35:49.649Z,87.40
2018-07-15T22:38:18.641Z,87.40
2018-07-15T22:40:47.681Z,87.40
2018-07-15T22:43:16.689Z,87.00
2018-07-15T22:45:45.678Z,87.20
2018-07-15T22:48:14.710Z,87.40
2018-07-15T22:50:43.736Z,87.00
2018-07-15T22:53:12.788Z,87.10
2018-07-15T22:55:42.551Z,87.30
2018-07-15T22:58:11.563Z,87.30
2018-07-15T23:00:40.544Z,88.90
2018-07-15T23:03:09.544Z,89.30
2018-07-15T23:05:51.828Z,88.40
2018-07-15T23:08:22.676Z,88.30
2018-07-15T23:10:51.699Z,88.50
2018-07-15T23:13:20.865Z,89.20
2018-07-15T23:15:50.769Z,90.20
2018-07-15T23:18:19.836Z,90.30
2018-07-15T23:20:49.500Z,90.40
2018-07-15T23:23:18.804Z,89.90
2018-07-15T23:25:48.562Z,90.00
2018-07-15T23:28:18.007Z,90.10
2018-07-15T23:30:47.035Z,89.80
2018-07-15T23:33:19.746Z,90.10
2018-07-15T23:35:49.411Z,90.30
2018-07-15T23:38:18.428Z,90.30
2018-07-15T23:40:47.428Z,90.30
2018-07-15T23:43:16.446Z,90.00
2018-07-15T23:45:45.510Z,90.20
2018-07-15T23:48:14.957Z,90.80
2018-07-15T23:50:44.399Z,90.90
2018-07-15T23:53:13.853Z,90.80
2018-07-15T23:55:42.855Z,90.90
2018-07-15T23:58:11.877Z,90.80
